Decoded Metar for KWRB (MACON in GA, USA) (IATA:WRB) | Meteo·Mobile Aviation Weather
aviador You're here:

KWRB Decoded Metar

MACON in GA, USA
Report Time2019-02-22 22:56:00
UTC Time2019-02-23 01:01:42
Flight Rules Old
Wind060° at 07 Gusting to 15 kt
W.Decomp.*RWY 15: 0.2 kt HW 7 kt LCW
W.Rank060° ranks 28
Current wind is above 060° avg. (4.7)
Visibility9999 m
Phenomena:N/A
Clouds:Few 050 Hf
Broken 100 Hf
Expected CloudBase > 1,200 ft AGL from Temp-Dew spread
Ceiling10,000 ft
Temp22°C (ISA +8)
Dew Point19°C (83% RH)
QNH1020 hPa
Density Alt1,234 ft
Elevation295 ft
Report Wrong Elevation
Raw Report
KWRB 222256Z 06007G15KT 10SM FEW050 BKN100 22/19 A3013 RMK AO2A
SLPNO T02160186=

Extra information for KWRB:More info

Metar Taf Metar & Taf Last 4 Metars F.Rules Stats Wind Profile Meteogram Temp Stats Airport Information Weather charts Add Link Nearby VenuesMetar ALERT Operation Metar Decoded Social comments

AIRNAV info for KWRB